sensor_id;sensor_type;location;lat;lon;timestamp;P1;durP1;ratioP1;P2;durP2;ratioP2
35634;SDS011;21757;43.610;1.440;2023-04-12T00:01:17;10.25;;;5.55;;
35634;SDS011;21757;43.610;1.440;2023-04-12T00:03:43;7.95;;;4.63;;
35634;SDS011;21757;43.610;1.440;2023-04-12T00:06:15;8.50;;;4.50;;
35634;SDS011;21757;43.610;1.440;2023-04-12T00:08:41;6.28;;;3.92;;
35634;SDS011;21757;43.610;1.440;2023-04-12T00:11:11;8.90;;;4.50;;
35634;SDS011;21757;43.610;1.440;2023-04-12T00:13:36;10.98;;;4.00;;
35634;SDS011;21757;43.610;1.440;2023-04-12T00:16:02;7.20;;;4.18;;
35634;SDS011;21757;43.610;1.440;2023-04-12T00:18:28;7.07;;;4.30;;
35634;SDS011;21757;43.610;1.440;2023-04-12T00:20:54;6.65;;;4.43;;
35634;SDS011;21757;43.610;1.440;2023-04-12T00:23:20;9.27;;;4.22;;
35634;SDS011;21757;43.610;1.440;2023-04-12T00:25:46;5.55;;;4.00;;
35634;SDS011;21757;43.610;1.440;2023-04-12T00:28:12;7.38;;;3.83;;
35634;SDS011;21757;43.610;1.440;2023-04-12T00:30:38;8.40;;;4.05;;
35634;SDS011;21757;43.610;1.440;2023-04-12T00:33:05;7.80;;;4.25;;
35634;SDS011;21757;43.610;1.440;2023-04-12T00:35:31;6.38;;;3.78;;
35634;SDS011;21757;43.610;1.440;2023-04-12T00:37:56;7.63;;;4.68;;
35634;SDS011;21757;43.610;1.440;2023-04-12T00:40:22;8.20;;;4.38;;
35634;SDS011;21757;43.610;1.440;2023-04-12T00:42:48;9.90;;;4.45;;
35634;SDS011;21757;43.610;1.440;2023-04-12T00:45:15;7.45;;;4.20;;
35634;SDS011;21757;43.610;1.440;2023-04-12T00:47:40;7.38;;;4.07;;
35634;SDS011;21757;43.610;1.440;2023-04-12T00:50:09;7.47;;;3.90;;
35634;SDS011;21757;43.610;1.440;2023-04-12T00:52:35;6.43;;;3.80;;
35634;SDS011;21757;43.610;1.440;2023-04-12T00:55:02;8.57;;;4.10;;
35634;SDS011;21757;43.610;1.440;2023-04-12T00:57:38;10.57;;;4.40;;
35634;SDS011;21757;43.610;1.440;2023-04-12T01:00:05;6.80;;;3.95;;
35634;SDS011;21757;43.610;1.440;2023-04-12T01:02:34;7.95;;;4.13;;
35634;SDS011;21757;43.610;1.440;2023-04-12T01:05:03;9.35;;;4.28;;
35634;SDS011;21757;43.610;1.440;2023-04-12T01:07:39;8.48;;;4.30;;
35634;SDS011;21757;43.610;1.440;2023-04-12T01:13:10;8.93;;;4.35;;
35634;SDS011;21757;43.610;1.440;2023-04-12T01:15:42;9.80;;;3.93;;
35634;SDS011;21757;43.610;1.440;2023-04-12T01:18:20;8.48;;;4.28;;
35634;SDS011;21757;43.610;1.440;2023-04-12T01:21:23;5.32;;;3.88;;
35634;SDS011;21757;43.610;1.440;2023-04-12T01:24:19;6.55;;;3.85;;
35634;SDS011;21757;43.610;1.440;2023-04-12T01:26:44;7.53;;;3.80;;
35634;SDS011;21757;43.610;1.440;2023-04-12T01:29:15;6.60;;;3.80;;
35634;SDS011;21757;43.610;1.440;2023-04-12T01:31:59;9.80;;;4.55;;
35634;SDS011;21757;43.610;1.440;2023-04-12T01:37:00;8.65;;;3.85;;
35634;SDS011;21757;43.610;1.440;2023-04-12T01:39:28;10.82;;;4.55;;
35634;SDS011;21757;43.610;1.440;2023-04-12T01:41:54;9.38;;;4.60;;
35634;SDS011;21757;43.610;1.440;2023-04-12T01:44:21;10.15;;;4.43;;
35634;SDS011;21757;43.610;1.440;2023-04-12T01:46:47;10.15;;;4.97;;
35634;SDS011;21757;43.610;1.440;2023-04-12T01:49:13;9.73;;;5.13;;
35634;SDS011;21757;43.610;1.440;2023-04-12T01:54:37;16.27;;;8.23;;
35634;SDS011;21757;43.610;1.440;2023-04-12T01:57:05;14.70;;;8.13;;
35634;SDS011;21757;43.610;1.440;2023-04-12T01:59:38;12.45;;;7.50;;
35634;SDS011;21757;43.610;1.440;2023-04-12T02:02:05;13.18;;;7.82;;
35634;SDS011;21757;43.610;1.440;2023-04-12T02:04:32;12.13;;;7.40;;
35634;SDS011;21757;43.610;1.440;2023-04-12T02:07:00;13.93;;;8.30;;
35634;SDS011;21757;43.610;1.440;2023-04-12T02:09:26;16.45;;;8.13;;
35634;SDS011;21757;43.610;1.440;2023-04-12T02:11:52;17.63;;;9.43;;
35634;SDS011;21757;43.610;1.440;2023-04-12T02:14:17;28.58;;;21.42;;
35634;SDS011;21757;43.610;1.440;2023-04-12T02:16:43;28.33;;;20.67;;
35634;SDS011;21757;43.610;1.440;2023-04-12T02:19:10;26.55;;;19.98;;
35634;SDS011;21757;43.610;1.440;2023-04-12T02:21:40;26.35;;;18.20;;
35634;SDS011;21757;43.610;1.440;2023-04-12T02:24:07;25.98;;;16.85;;
35634;SDS011;21757;43.610;1.440;2023-04-12T02:26:33;24.85;;;14.45;;
35634;SDS011;21757;43.610;1.440;2023-04-12T02:29:00;19.00;;;12.88;;
35634;SDS011;21757;43.610;1.440;2023-04-12T02:31:25;11.07;;;6.70;;
35634;SDS011;21757;43.610;1.440;2023-04-12T02:33:52;9.55;;;5.05;;
35634;SDS011;21757;43.610;1.440;2023-04-12T02:36:17;9.68;;;5.28;;
35634;SDS011;21757;43.610;1.440;2023-04-12T02:38:43;9.40;;;4.72;;
35634;SDS011;21757;43.610;1.440;2023-04-12T02:41:09;7.45;;;4.20;;
35634;SDS011;21757;43.610;1.440;2023-04-12T02:43:44;7.45;;;4.05;;
35634;SDS011;21757;43.610;1.440;2023-04-12T02:46:14;6.32;;;4.07;;
35634;SDS011;21757;43.610;1.440;2023-04-12T02:48:43;11.45;;;4.60;;
35634;SDS011;21757;43.610;1.440;2023-04-12T02:51:10;7.90;;;4.20;;
35634;SDS011;21757;43.610;1.440;2023-04-12T02:53:35;7.50;;;4.38;;
35634;SDS011;21757;43.610;1.440;2023-04-12T02:56:04;6.82;;;4.22;;
35634;SDS011;21757;43.610;1.440;2023-04-12T02:58:31;7.90;;;4.40;;
35634;SDS011;21757;43.610;1.440;2023-04-12T03:01:01;6.28;;;4.32;;
35634;SDS011;21757;43.610;1.440;2023-04-12T03:03:31;7.85;;;4.57;;
35634;SDS011;21757;43.610;1.440;2023-04-12T03:05:58;10.98;;;4.45;;
35634;SDS011;21757;43.610;1.440;2023-04-12T03:08:24;7.60;;;3.95;;
35634;SDS011;21757;43.610;1.440;2023-04-12T03:10:50;8.15;;;4.22;;
35634;SDS011;21757;43.610;1.440;2023-04-12T03:13:16;7.43;;;4.22;;
35634;SDS011;21757;43.610;1.440;2023-04-12T03:15:42;10.02;;;4.43;;
35634;SDS011;21757;43.610;1.440;2023-04-12T03:18:08;8.45;;;4.43;;
35634;SDS011;21757;43.610;1.440;2023-04-12T03:20:34;9.02;;;4.05;;
35634;SDS011;21757;43.610;1.440;2023-04-12T03:23:00;7.70;;;4.53;;
35634;SDS011;21757;43.610;1.440;2023-04-12T03:25:25;4.45;;;3.95;;
35634;SDS011;21757;43.610;1.440;2023-04-12T03:27:51;9.57;;;4.47;;
35634;SDS011;21757;43.610;1.440;2023-04-12T03:30:17;6.45;;;4.88;;
35634;SDS011;21757;43.610;1.440;2023-04-12T03:32:43;9.38;;;4.38;;
35634;SDS011;21757;43.610;1.440;2023-04-12T03:35:09;5.50;;;3.90;;
35634;SDS011;21757;43.610;1.440;2023-04-12T03:37:35;8.35;;;4.40;;
35634;SDS011;21757;43.610;1.440;2023-04-12T03:40:05;8.75;;;4.50;;
35634;SDS011;21757;43.610;1.440;2023-04-12T03:42:32;75.40;;;8.40;;
35634;SDS011;21757;43.610;1.440;2023-04-12T03:44:57;15.35;;;4.93;;
35634;SDS011;21757;43.610;1.440;2023-04-12T03:47:23;9.32;;;4.55;;
35634;SDS011;21757;43.610;1.440;2023-04-12T03:49:49;13.52;;;5.90;;
35634;SDS011;21757;43.610;1.440;2023-04-12T03:52:14;17.45;;;6.03;;
35634;SDS011;21757;43.610;1.440;2023-04-12T03:54:40;9.00;;;4.05;;
35634;SDS011;21757;43.610;1.440;2023-04-12T03:57:06;8.00;;;4.38;;
35634;SDS011;21757;43.610;1.440;2023-04-12T03:59:31;13.93;;;4.93;;
35634;SDS011;21757;43.610;1.440;2023-04-12T04:01:58;9.15;;;3.97;;
35634;SDS011;21757;43.610;1.440;2023-04-12T04:04:25;8.10;;;4.20;;
35634;SDS011;21757;43.610;1.440;2023-04-12T04:06:51;8.02;;;4.18;;
35634;SDS011;21757;43.610;1.440;2023-04-12T04:09:17;6.88;;;4.63;;
35634;SDS011;21757;43.610;1.440;2023-04-12T04:11:43;8.57;;;4.55;;
35634;SDS011;21757;43.610;1.440;2023-04-12T04:14:09;8.90;;;5.20;;
35634;SDS011;21757;43.610;1.440;2023-04-12T04:16:35;6.95;;;4.68;;
35634;SDS011;21757;43.610;1.440;2023-04-12T04:19:00;9.63;;;5.00;;
35634;SDS011;21757;43.610;1.440;2023-04-12T04:21:26;8.55;;;4.88;;
35634;SDS011;21757;43.610;1.440;2023-04-12T04:23:54;7.35;;;4.80;;
35634;SDS011;21757;43.610;1.440;2023-04-12T04:26:22;7.78;;;5.03;;
35634;SDS011;21757;43.610;1.440;2023-04-12T04:28:57;10.98;;;5.80;;
35634;SDS011;21757;43.610;1.440;2023-04-12T04:31:27;12.15;;;4.88;;
35634;SDS011;21757;43.610;1.440;2023-04-12T04:34:02;7.28;;;5.05;;
35634;SDS011;21757;43.610;1.440;2023-04-12T04:36:31;9.40;;;4.97;;
35634;SDS011;21757;43.610;1.440;2023-04-12T04:38:58;10.23;;;5.68;;
35634;SDS011;21757;43.610;1.440;2023-04-12T04:41:24;9.25;;;5.50;;
35634;SDS011;21757;43.610;1.440;2023-04-12T04:43:50;9.75;;;5.90;;
35634;SDS011;21757;43.610;1.440;2023-04-12T04:46:16;11.95;;;5.72;;
35634;SDS011;21757;43.610;1.440;2023-04-12T04:48:45;8.90;;;5.85;;
35634;SDS011;21757;43.610;1.440;2023-04-12T04:51:12;10.27;;;5.88;;
35634;SDS011;21757;43.610;1.440;2023-04-12T04:53:39;9.13;;;5.90;;
35634;SDS011;21757;43.610;1.440;2023-04-12T04:56:05;9.50;;;6.50;;
35634;SDS011;21757;43.610;1.440;2023-04-12T04:58:31;10.18;;;6.40;;
35634;SDS011;21757;43.610;1.440;2023-04-12T05:00:56;11.65;;;6.57;;
35634;SDS011;21757;43.610;1.440;2023-04-12T05:03:23;10.65;;;6.30;;
35634;SDS011;21757;43.610;1.440;2023-04-12T05:05:52;10.50;;;6.53;;
35634;SDS011;21757;43.610;1.440;2023-04-12T05:08:19;10.85;;;6.90;;
35634;SDS011;21757;43.610;1.440;2023-04-12T05:10:48;9.18;;;6.22;;
35634;SDS011;21757;43.610;1.440;2023-04-12T05:15:42;10.02;;;6.35;;
35634;SDS011;21757;43.610;1.440;2023-04-12T05:18:07;12.45;;;6.38;;
35634;SDS011;21757;43.610;1.440;2023-04-12T05:20:33;24.02;;;13.05;;
35634;SDS011;21757;43.610;1.440;2023-04-12T05:23:02;14.35;;;6.78;;
35634;SDS011;21757;43.610;1.440;2023-04-12T05:25:28;12.57;;;6.57;;
35634;SDS011;21757;43.610;1.440;2023-04-12T05:27:53;10.32;;;6.40;;
35634;SDS011;21757;43.610;1.440;2023-04-12T05:30:19;13.93;;;7.18;;
35634;SDS011;21757;43.610;1.440;2023-04-12T05:32:45;12.07;;;7.03;;
35634;SDS011;21757;43.610;1.440;2023-04-12T05:35:11;11.77;;;6.53;;
35634;SDS011;21757;43.610;1.440;2023-04-12T05:37:39;11.02;;;6.70;;
35634;SDS011;21757;43.610;1.440;2023-04-12T05:40:05;13.50;;;7.55;;
35634;SDS011;21757;43.610;1.440;2023-04-12T05:42:33;13.85;;;7.05;;
35634;SDS011;21757;43.610;1.440;2023-04-12T05:45:01;12.73;;;8.95;;
35634;SDS011;21757;43.610;1.440;2023-04-12T05:47:28;11.95;;;7.22;;
35634;SDS011;21757;43.610;1.440;2023-04-12T05:49:53;12.18;;;7.05;;
35634;SDS011;21757;43.610;1.440;2023-04-12T05:52:19;13.70;;;6.88;;
35634;SDS011;21757;43.610;1.440;2023-04-12T05:54:45;12.35;;;7.07;;
35634;SDS011;21757;43.610;1.440;2023-04-12T05:57:11;10.05;;;6.95;;
35634;SDS011;21757;43.610;1.440;2023-04-12T05:59:36;12.38;;;6.68;;
35634;SDS011;21757;43.610;1.440;2023-04-12T06:02:02;12.93;;;7.47;;
35634;SDS011;21757;43.610;1.440;2023-04-12T06:04:28;30.63;;;17.88;;
35634;SDS011;21757;43.610;1.440;2023-04-12T06:06:54;14.00;;;9.20;;
35634;SDS011;21757;43.610;1.440;2023-04-12T06:09:20;11.43;;;6.85;;
35634;SDS011;21757;43.610;1.440;2023-04-12T06:11:46;15.98;;;7.38;;
35634;SDS011;21757;43.610;1.440;2023-04-12T06:14:11;13.30;;;7.75;;
35634;SDS011;21757;43.610;1.440;2023-04-12T06:16:37;13.30;;;7.57;;
35634;SDS011;21757;43.610;1.440;2023-04-12T06:19:03;12.57;;;7.47;;
35634;SDS011;21757;43.610;1.440;2023-04-12T06:21:29;11.80;;;7.70;;
35634;SDS011;21757;43.610;1.440;2023-04-12T06:23:55;16.30;;;8.50;;
35634;SDS011;21757;43.610;1.440;2023-04-12T06:26:21;14.45;;;8.38;;
35634;SDS011;21757;43.610;1.440;2023-04-12T06:28:46;14.88;;;9.30;;
35634;SDS011;21757;43.610;1.440;2023-04-12T06:31:13;10.25;;;8.27;;
35634;SDS011;21757;43.610;1.440;2023-04-12T06:33:40;15.10;;;8.70;;
35634;SDS011;21757;43.610;1.440;2023-04-12T06:36:06;14.02;;;9.02;;
35634;SDS011;21757;43.610;1.440;2023-04-12T06:38:32;12.45;;;7.80;;
35634;SDS011;21757;43.610;1.440;2023-04-12T06:40:58;14.32;;;8.52;;
35634;SDS011;21757;43.610;1.440;2023-04-12T06:43:24;15.88;;;8.25;;
35634;SDS011;21757;43.610;1.440;2023-04-12T06:45:50;13.27;;;8.20;;
35634;SDS011;21757;43.610;1.440;2023-04-12T06:48:15;12.75;;;7.82;;
35634;SDS011;21757;43.610;1.440;2023-04-12T06:50:41;14.10;;;9.23;;
35634;SDS011;21757;43.610;1.440;2023-04-12T06:53:08;11.90;;;8.48;;
35634;SDS011;21757;43.610;1.440;2023-04-12T06:55:34;15.93;;;8.40;;
35634;SDS011;21757;43.610;1.440;2023-04-12T06:58:00;11.40;;;8.18;;
35634;SDS011;21757;43.610;1.440;2023-04-12T07:00:25;14.82;;;7.93;;
35634;SDS011;21757;43.610;1.440;2023-04-12T07:02:51;11.82;;;7.80;;
35634;SDS011;21757;43.610;1.440;2023-04-12T07:05:17;11.43;;;8.18;;
35634;SDS011;21757;43.610;1.440;2023-04-12T07:07:43;10.63;;;7.65;;
35634;SDS011;21757;43.610;1.440;2023-04-12T07:10:09;10.05;;;7.30;;
35634;SDS011;21757;43.610;1.440;2023-04-12T07:12:35;13.48;;;7.85;;
35634;SDS011;21757;43.610;1.440;2023-04-12T07:15:00;12.98;;;7.97;;
35634;SDS011;21757;43.610;1.440;2023-04-12T07:17:26;9.88;;;7.85;;
35634;SDS011;21757;43.610;1.440;2023-04-12T07:19:53;13.70;;;7.80;;
35634;SDS011;21757;43.610;1.440;2023-04-12T07:22:19;12.93;;;7.82;;
35634;SDS011;21757;43.610;1.440;2023-04-12T07:24:45;15.77;;;7.65;;
35634;SDS011;21757;43.610;1.440;2023-04-12T07:27:10;13.18;;;7.57;;
35634;SDS011;21757;43.610;1.440;2023-04-12T07:29:36;12.77;;;7.45;;
35634;SDS011;21757;43.610;1.440;2023-04-12T07:32:02;18.30;;;8.45;;
35634;SDS011;21757;43.610;1.440;2023-04-12T07:34:31;16.73;;;7.78;;
35634;SDS011;21757;43.610;1.440;2023-04-12T07:36:56;14.82;;;8.88;;
35634;SDS011;21757;43.610;1.440;2023-04-12T07:39:25;19.33;;;9.15;;
35634;SDS011;21757;43.610;1.440;2023-04-12T07:44:39;12.13;;;7.45;;
35634;SDS011;21757;43.610;1.440;2023-04-12T07:47:05;14.90;;;7.20;;
35634;SDS011;21757;43.610;1.440;2023-04-12T07:49:31;13.85;;;7.90;;
35634;SDS011;21757;43.610;1.440;2023-04-12T07:51:57;14.43;;;7.57;;
35634;SDS011;21757;43.610;1.440;2023-04-12T07:54:27;10.27;;;6.85;;
35634;SDS011;21757;43.610;1.440;2023-04-12T07:57:00;14.67;;;7.63;;
35634;SDS011;21757;43.610;1.440;2023-04-12T07:59:28;13.73;;;7.20;;
35634;SDS011;21757;43.610;1.440;2023-04-12T08:01:56;12.50;;;6.18;;
35634;SDS011;21757;43.610;1.440;2023-04-12T08:04:21;10.55;;;6.38;;
35634;SDS011;21757;43.610;1.440;2023-04-12T08:06:47;11.07;;;7.07;;
35634;SDS011;21757;43.610;1.440;2023-04-12T08:09:13;10.80;;;7.03;;
35634;SDS011;21757;43.610;1.440;2023-04-12T08:11:38;16.25;;;7.10;;
35634;SDS011;21757;43.610;1.440;2023-04-12T08:14:04;15.20;;;9.30;;
35634;SDS011;21757;43.610;1.440;2023-04-12T08:16:30;10.55;;;6.85;;
35634;SDS011;21757;43.610;1.440;2023-04-12T08:18:56;13.25;;;6.18;;
35634;SDS011;21757;43.610;1.440;2023-04-12T08:21:22;13.45;;;6.55;;
35634;SDS011;21757;43.610;1.440;2023-04-12T08:23:52;11.70;;;6.63;;
35634;SDS011;21757;43.610;1.440;2023-04-12T08:26:18;10.93;;;5.80;;
35634;SDS011;21757;43.610;1.440;2023-04-12T08:28:43;8.80;;;5.57;;
35634;SDS011;21757;43.610;1.440;2023-04-12T08:31:09;9.57;;;5.97;;
35634;SDS011;21757;43.610;1.440;2023-04-12T08:33:35;9.98;;;5.72;;
35634;SDS011;21757;43.610;1.440;2023-04-12T08:36:01;11.00;;;5.22;;
35634;SDS011;21757;43.610;1.440;2023-04-12T08:38:27;14.18;;;5.30;;
35634;SDS011;21757;43.610;1.440;2023-04-12T08:40:52;7.40;;;4.57;;
35634;SDS011;21757;43.610;1.440;2023-04-12T08:43:18;9.48;;;4.95;;
35634;SDS011;21757;43.610;1.440;2023-04-12T08:45:46;8.63;;;4.63;;
35634;SDS011;21757;43.610;1.440;2023-04-12T08:48:15;8.85;;;4.13;;
35634;SDS011;21757;43.610;1.440;2023-04-12T08:50:42;10.52;;;4.97;;
35634;SDS011;21757;43.610;1.440;2023-04-12T08:53:10;8.50;;;4.55;;
35634;SDS011;21757;43.610;1.440;2023-04-12T08:55:43;11.63;;;4.47;;
35634;SDS011;21757;43.610;1.440;2023-04-12T08:58:09;10.55;;;4.90;;
35634;SDS011;21757;43.610;1.440;2023-04-12T09:00:42;10.88;;;4.93;;
35634;SDS011;21757;43.610;1.440;2023-04-12T09:03:12;11.20;;;5.00;;
35634;SDS011;21757;43.610;1.440;2023-04-12T09:05:38;8.93;;;4.60;;
35634;SDS011;21757;43.610;1.440;2023-04-12T09:08:04;9.45;;;4.15;;
35634;SDS011;21757;43.610;1.440;2023-04-12T09:10:34;9.00;;;4.22;;
35634;SDS011;21757;43.610;1.440;2023-04-12T09:13:02;10.48;;;4.28;;
35634;SDS011;21757;43.610;1.440;2023-04-12T09:15:29;7.55;;;4.00;;
35634;SDS011;21757;43.610;1.440;2023-04-12T09:18:06;9.30;;;4.00;;
35634;SDS011;21757;43.610;1.440;2023-04-12T09:20:35;18.35;;;4.22;;
35634;SDS011;21757;43.610;1.440;2023-04-12T09:23:18;9.25;;;4.38;;
35634;SDS011;21757;43.610;1.440;2023-04-12T09:25:44;9.02;;;3.95;;
35634;SDS011;21757;43.610;1.440;2023-04-12T09:28:21;9.73;;;4.20;;
35634;SDS011;21757;43.610;1.440;2023-04-12T09:30:54;8.65;;;4.07;;
35634;SDS011;21757;43.610;1.440;2023-04-12T09:33:34;8.13;;;3.57;;
35634;SDS011;21757;43.610;1.440;2023-04-12T09:36:04;7.60;;;3.78;;
35634;SDS011;21757;43.610;1.440;2023-04-12T09:38:37;7.50;;;3.88;;
35634;SDS011;21757;43.610;1.440;2023-04-12T09:41:17;10.52;;;3.90;;
35634;SDS011;21757;43.610;1.440;2023-04-12T09:43:51;8.02;;;3.83;;
35634;SDS011;21757;43.610;1.440;2023-04-12T09:46:17;12.13;;;4.07;;
35634;SDS011;21757;43.610;1.440;2023-04-12T10:27:49;8.98;;;3.35;;
35634;SDS011;21757;43.610;1.440;2023-04-12T10:30:18;9.30;;;3.25;;
35634;SDS011;21757;43.610;1.440;2023-04-12T10:33:31;10.63;;;3.15;;
35634;SDS011;21757;43.610;1.440;2023-04-12T10:36:02;9.35;;;3.35;;
35634;SDS011;21757;43.610;1.440;2023-04-12T11:02:15;9.68;;;2.90;;
35634;SDS011;21757;43.610;1.440;2023-04-12T11:07:44;6.65;;;2.70;;
35634;SDS011;21757;43.610;1.440;2023-04-12T11:10:13;5.97;;;2.50;;
35634;SDS011;21757;43.610;1.440;2023-04-12T11:12:41;8.53;;;3.03;;
35634;SDS011;21757;43.610;1.440;2023-04-12T11:15:14;5.22;;;2.40;;
35634;SDS011;21757;43.610;1.440;2023-04-12T11:17:40;5.07;;;2.30;;
35634;SDS011;21757;43.610;1.440;2023-04-12T11:20:09;8.20;;;5.32;;
35634;SDS011;21757;43.610;1.440;2023-04-12T11:22:36;6.07;;;2.60;;
35634;SDS011;21757;43.610;1.440;2023-04-12T11:25:03;6.18;;;2.90;;
35634;SDS011;21757;43.610;1.440;2023-04-12T11:27:29;6.22;;;2.85;;
35634;SDS011;21757;43.610;1.440;2023-04-12T11:29:59;5.75;;;1.98;;
35634;SDS011;21757;43.610;1.440;2023-04-12T11:32:26;8.55;;;4.13;;
35634;SDS011;21757;43.610;1.440;2023-04-12T11:34:54;5.43;;;2.40;;
35634;SDS011;21757;43.610;1.440;2023-04-12T11:37:20;5.65;;;2.92;;
35634;SDS011;21757;43.610;1.440;2023-04-12T11:39:49;12.07;;;3.25;;
35634;SDS011;21757;43.610;1.440;2023-04-12T11:42:22;6.10;;;2.92;;
35634;SDS011;21757;43.610;1.440;2023-04-12T11:44:49;5.80;;;2.85;;
35634;SDS011;21757;43.610;1.440;2023-04-12T11:47:19;10.25;;;3.00;;
35634;SDS011;21757;43.610;1.440;2023-04-12T11:49:48;6.60;;;2.85;;
35634;SDS011;21757;43.610;1.440;2023-04-12T11:52:17;5.40;;;2.97;;
35634;SDS011;21757;43.610;1.440;2023-04-12T11:54:44;5.72;;;2.50;;
35634;SDS011;21757;43.610;1.440;2023-04-12T11:57:14;7.65;;;2.78;;
35634;SDS011;21757;43.610;1.440;2023-04-12T11:59:42;8.55;;;2.95;;
35634;SDS011;21757;43.610;1.440;2023-04-12T12:02:11;7.15;;;2.70;;
35634;SDS011;21757;43.610;1.440;2023-04-12T12:04:38;8.25;;;2.80;;
35634;SDS011;21757;43.610;1.440;2023-04-12T12:07:06;9.77;;;4.30;;
35634;SDS011;21757;43.610;1.440;2023-04-12T12:09:32;6.43;;;3.75;;
35634;SDS011;21757;43.610;1.440;2023-04-12T12:11:59;6.80;;;2.90;;
35634;SDS011;21757;43.610;1.440;2023-04-12T12:14:25;10.13;;;3.50;;
35634;SDS011;21757;43.610;1.440;2023-04-12T12:16:52;6.38;;;3.10;;
35634;SDS011;21757;43.610;1.440;2023-04-12T12:19:28;10.45;;;3.92;;
35634;SDS011;21757;43.610;1.440;2023-04-12T12:24:30;8.43;;;3.30;;
35634;SDS011;21757;43.610;1.440;2023-04-12T12:26:59;8.82;;;3.47;;
35634;SDS011;21757;43.610;1.440;2023-04-12T12:29:32;7.10;;;3.10;;
35634;SDS011;21757;43.610;1.440;2023-04-12T12:31:59;8.00;;;3.05;;
35634;SDS011;21757;43.610;1.440;2023-04-12T12:34:30;8.68;;;3.45;;
35634;SDS011;21757;43.610;1.440;2023-04-12T12:36:56;9.32;;;3.78;;
35634;SDS011;21757;43.610;1.440;2023-04-12T12:39:22;12.73;;;3.85;;
35634;SDS011;21757;43.610;1.440;2023-04-12T12:41:54;7.60;;;3.60;;
35634;SDS011;21757;43.610;1.440;2023-04-12T12:44:23;6.47;;;3.28;;
35634;SDS011;21757;43.610;1.440;2023-04-12T12:46:49;6.35;;;3.25;;
35634;SDS011;21757;43.610;1.440;2023-04-12T12:49:15;7.30;;;3.95;;
35634;SDS011;21757;43.610;1.440;2023-04-12T12:51:41;10.38;;;3.72;;
35634;SDS011;21757;43.610;1.440;2023-04-12T12:54:07;9.07;;;3.38;;
35634;SDS011;21757;43.610;1.440;2023-04-12T12:56:33;8.30;;;3.80;;
35634;SDS011;21757;43.610;1.440;2023-04-12T12:58:59;6.93;;;3.55;;
35634;SDS011;21757;43.610;1.440;2023-04-12T13:01:25;10.73;;;4.45;;
35634;SDS011;21757;43.610;1.440;2023-04-12T13:03:54;11.63;;;3.95;;
35634;SDS011;21757;43.610;1.440;2023-04-12T13:06:20;4.90;;;1.40;;
35634;SDS011;21757;43.610;1.440;2023-04-12T13:08:46;5.85;;;1.55;;
35634;SDS011;21757;43.610;1.440;2023-04-12T13:11:12;4.50;;;1.45;;
35634;SDS011;21757;43.610;1.440;2023-04-12T13:13:38;2.78;;;1.10;;
35634;SDS011;21757;43.610;1.440;2023-04-12T13:16:05;2.35;;;0.85;;
35634;SDS011;21757;43.610;1.440;2023-04-12T13:18:31;2.50;;;0.88;;
35634;SDS011;21757;43.610;1.440;2023-04-12T13:20:57;3.20;;;0.95;;
35634;SDS011;21757;43.610;1.440;2023-04-12T13:23:23;3.50;;;0.88;;
35634;SDS011;21757;43.610;1.440;2023-04-12T13:25:48;5.32;;;1.30;;
35634;SDS011;21757;43.610;1.440;2023-04-12T13:28:14;5.47;;;1.10;;
35634;SDS011;21757;43.610;1.440;2023-04-12T13:30:41;2.67;;;0.90;;
35634;SDS011;21757;43.610;1.440;2023-04-12T13:33:06;3.45;;;1.23;;
35634;SDS011;21757;43.610;1.440;2023-04-12T13:35:33;3.15;;;1.30;;
35634;SDS011;21757;43.610;1.440;2023-04-12T13:37:58;6.15;;;0.95;;
35634;SDS011;21757;43.610;1.440;2023-04-12T13:40:24;3.40;;;1.00;;
35634;SDS011;21757;43.610;1.440;2023-04-12T13:42:50;2.50;;;0.82;;
35634;SDS011;21757;43.610;1.440;2023-04-12T13:45:15;3.92;;;1.10;;
35634;SDS011;21757;43.610;1.440;2023-04-12T13:47:43;4.72;;;0.82;;
35634;SDS011;21757;43.610;1.440;2023-04-12T13:50:09;5.07;;;1.40;;
35634;SDS011;21757;43.610;1.440;2023-04-12T13:52:35;3.90;;;0.88;;
35634;SDS011;21757;43.610;1.440;2023-04-12T13:55:01;2.33;;;0.90;;
35634;SDS011;21757;43.610;1.440;2023-04-12T13:57:28;3.50;;;1.10;;
35634;SDS011;21757;43.610;1.440;2023-04-12T13:59:54;2.72;;;1.10;;
35634;SDS011;21757;43.610;1.440;2023-04-12T14:02:20;8.32;;;2.05;;
35634;SDS011;21757;43.610;1.440;2023-04-12T14:04:49;3.45;;;1.10;;
35634;SDS011;21757;43.610;1.440;2023-04-12T14:07:19;2.97;;;1.05;;
35634;SDS011;21757;43.610;1.440;2023-04-12T14:09:45;3.10;;;1.13;;
35634;SDS011;21757;43.610;1.440;2023-04-12T14:12:12;5.75;;;2.15;;
35634;SDS011;21757;43.610;1.440;2023-04-12T14:14:38;5.00;;;1.65;;
35634;SDS011;21757;43.610;1.440;2023-04-12T14:17:04;5.88;;;1.27;;
35634;SDS011;21757;43.610;1.440;2023-04-12T14:19:30;4.95;;;1.70;;
35634;SDS011;21757;43.610;1.440;2023-04-12T14:21:56;4.68;;;2.20;;
35634;SDS011;21757;43.610;1.440;2023-04-12T14:24:21;7.43;;;1.23;;
35634;SDS011;21757;43.610;1.440;2023-04-12T14:26:48;4.43;;;1.25;;
35634;SDS011;21757;43.610;1.440;2023-04-12T14:29:17;6.35;;;1.77;;
35634;SDS011;21757;43.610;1.440;2023-04-12T14:31:43;3.78;;;1.20;;
35634;SDS011;21757;43.610;1.440;2023-04-12T14:34:09;3.85;;;1.10;;
35634;SDS011;21757;43.610;1.440;2023-04-12T14:36:35;5.28;;;1.38;;
35634;SDS011;21757;43.610;1.440;2023-04-12T14:39:01;6.90;;;1.42;;
35634;SDS011;21757;43.610;1.440;2023-04-12T14:41:28;4.75;;;1.50;;
35634;SDS011;21757;43.610;1.440;2023-04-12T14:43:54;6.82;;;1.65;;
35634;SDS011;21757;43.610;1.440;2023-04-12T14:46:20;4.53;;;1.35;;
35634;SDS011;21757;43.610;1.440;2023-04-12T14:48:46;7.28;;;1.40;;
35634;SDS011;21757;43.610;1.440;2023-04-12T14:51:11;6.70;;;1.10;;
35634;SDS011;21757;43.610;1.440;2023-04-12T14:53:37;5.75;;;1.50;;
35634;SDS011;21757;43.610;1.440;2023-04-12T14:56:04;5.97;;;1.30;;
35634;SDS011;21757;43.610;1.440;2023-04-12T14:58:50;6.93;;;1.70;;
35634;SDS011;21757;43.610;1.440;2023-04-12T15:01:19;6.97;;;1.33;;
35634;SDS011;21757;43.610;1.440;2023-04-12T15:03:45;4.82;;;1.60;;
35634;SDS011;21757;43.610;1.440;2023-04-12T15:06:11;5.50;;;1.48;;
35634;SDS011;21757;43.610;1.440;2023-04-12T15:08:38;4.97;;;1.23;;
35634;SDS011;21757;43.610;1.440;2023-04-12T15:11:07;8.98;;;1.42;;
35634;SDS011;21757;43.610;1.440;2023-04-12T15:13:39;7.50;;;1.52;;
35634;SDS011;21757;43.610;1.440;2023-04-12T15:16:06;5.78;;;1.58;;
35634;SDS011;21757;43.610;1.440;2023-04-12T15:18:33;6.60;;;1.58;;
35634;SDS011;21757;43.610;1.440;2023-04-12T15:21:03;10.90;;;1.55;;
35634;SDS011;21757;43.610;1.440;2023-04-12T15:23:30;9.00;;;1.50;;
35634;SDS011;21757;43.610;1.440;2023-04-12T15:25:58;7.35;;;1.20;;
35634;SDS011;21757;43.610;1.440;2023-04-12T15:28:27;6.65;;;1.60;;
35634;SDS011;21757;43.610;1.440;2023-04-12T15:30:53;10.90;;;2.40;;
35634;SDS011;21757;43.610;1.440;2023-04-12T15:33:19;9.23;;;1.67;;
35634;SDS011;21757;43.610;1.440;2023-04-12T15:35:47;7.03;;;2.25;;
35634;SDS011;21757;43.610;1.440;2023-04-12T15:38:34;8.00;;;2.45;;
35634;SDS011;21757;43.610;1.440;2023-04-12T15:41:36;9.48;;;3.25;;
35634;SDS011;21757;43.610;1.440;2023-04-12T15:44:06;10.32;;;1.90;;
35634;SDS011;21757;43.610;1.440;2023-04-12T15:46:36;11.37;;;2.13;;
35634;SDS011;21757;43.610;1.440;2023-04-12T15:49:08;9.00;;;2.33;;
35634;SDS011;21757;43.610;1.440;2023-04-12T15:54:39;6.32;;;2.10;;
35634;SDS011;21757;43.610;1.440;2023-04-12T15:57:07;13.98;;;2.25;;
35634;SDS011;21757;43.610;1.440;2023-04-12T15:59:35;10.15;;;1.80;;
35634;SDS011;21757;43.610;1.440;2023-04-12T16:02:02;7.85;;;1.70;;
35634;SDS011;21757;43.610;1.440;2023-04-12T16:04:31;12.55;;;2.13;;
35634;SDS011;21757;43.610;1.440;2023-04-12T16:06:57;10.45;;;2.20;;
35634;SDS011;21757;43.610;1.440;2023-04-12T16:09:26;7.05;;;2.42;;
35634;SDS011;21757;43.610;1.440;2023-04-12T16:11:53;7.03;;;1.60;;